Terminal Aerodrome Forecast
Issued by NWS

Home | Current Version | Previous Version | Text Only | Print | Product List | Glossary On
Versions: 1 2 3 4 5 6 7 8 9 10 11 12 13 14 15
000
FTUS46 KLOX 271700
TAFBUR
TAF
KBUR 271739Z 2718/2818 VRB05KT P6SM OVC030
     FM271900 19008KT P6SM SCT040
     FM272300 25010KT P6SM SCT025 BKN060
     FM280600 27010G17KT P6SM BKN025 BKN080
     FM281400 26008KT 6SM BR VCSH BKN025 OVC050=

USA.gov is the U.S. government's official web portal to all federal, state and local government web resources and services.